Terminal Aerodrome Forecast
Issued by NWS

Current Version | Previous Version | Text Only | Print | Product List | Glossary On
Versions: 1 2 3 4 5 6 7 8 9 10 11 12 13
000
FTPA31 PHFO 162320
TAFHJH
TAF
PHJH 162320Z 1700/1724 03015G25KT P6SM FEW030 SCT040
     FM170500 04012G19KT P6SM FEW030
     FM171700 05019G28KT P6SM FEW030 SCT040
      AMD NOT SKED AFT 170400=

USA.gov is the U.S. government's official web portal to all federal, state and local government web resources and services.